Time;durP1;ratioP1;P1;durP2;ratioP2;P2;SDS_P1;SDS_P2;PMS_P1;PMS_P2;Temp;Humidity;BMP_temperature;BMP_pressure;BME280_temperature;BME280_humidity;BME280_pressure;Samples;Min_cycle;Max_cycle;Signal;HPM_P1;HPM_P2
2023/06/23 00:01:01;;;;;;;3.40;3.30;;;16.60;99.90;;;;;;5093571;28;20750;-70
2023/06/23 00:03:27;;;;;;;4.17;3.97;;;16.60;99.90;;;;;;5094117;28;20177;-69
2023/06/23 00:05:53;;;;;;;3.73;3.60;;;16.60;99.90;;;;;;5093900;28;20506;-70
2023/06/23 00:08:19;;;;;;;5.50;5.20;;;16.60;99.90;;;;;;5093655;28;20190;-71
2023/06/23 00:10:44;;;;;;;4.03;3.83;;;16.50;99.90;;;;;;5075208;28;20261;-69
2023/06/23 00:13:11;;;;;;;13.10;10.97;;;16.50;99.90;;;;;;5075438;28;20264;-70
2023/06/23 00:15:36;;;;;;;18.07;15.10;;;16.50;99.90;;;;;;5093765;28;20268;-71
2023/06/23 00:18:02;;;;;;;18.10;14.87;;;16.50;99.90;;;;;;5093627;28;20204;-70
2023/06/23 00:20:28;;;;;;;18.50;14.50;;;16.50;99.90;;;;;;5093202;28;20177;-70
2023/06/23 00:22:53;;;;;;;16.87;14.67;;;16.50;99.90;;;;;;5093495;28;20173;-71
2023/06/23 00:25:19;;;;;;;20.70;15.47;;;16.50;99.90;;;;;;5093343;28;20205;-70
2023/06/23 00:27:45;;;;;;;15.27;13.70;;;16.50;99.90;;;;;;5093518;28;20166;-71
2023/06/23 00:30:11;;;;;;;17.63;14.60;;;16.50;99.90;;;;;;5092936;28;20192;-70
2023/06/23 00:32:38;;;;;;;19.90;16.13;;;16.50;99.90;;;;;;5093385;28;20707;-71
2023/06/23 00:35:04;;;;;;;18.90;14.70;;;16.50;99.90;;;;;;5092159;28;20197;-70
2023/06/23 00:37:37;;;;;;;16.50;14.63;;;16.50;99.90;;;;;;5093070;28;20181;-70
2023/06/23 00:40:04;;;;;;;15.77;14.10;;;16.50;99.90;;;;;;5092809;28;20166;-71
2023/06/23 00:42:31;;;;;;;24.03;14.87;;;16.50;99.90;;;;;;5092979;28;20189;-70
2023/06/23 00:44:57;;;;;;;20.73;14.33;;;16.50;99.90;;;;;;5092710;28;20209;-70
2023/06/23 00:47:24;;;;;;;17.53;14.60;;;16.60;99.90;;;;;;5092872;28;20183;-71
2023/06/23 00:49:49;;;;;;;20.63;14.03;;;16.50;99.90;;;;;;5092606;28;20169;-70
2023/06/23 00:52:16;;;;;;;16.30;13.27;;;16.60;99.90;;;;;;5091660;28;20173;-72
2023/06/23 00:54:42;;;;;;;15.20;13.60;;;16.60;99.90;;;;;;5092743;28;20276;-71
2023/06/23 00:57:10;;;;;;;17.33;13.80;;;16.50;99.90;;;;;;5092752;28;20568;-70
2023/06/23 00:59:36;;;;;;;19.20;14.00;;;16.50;99.90;;;;;;5092675;28;20184;-70
2023/06/23 01:02:03;;;;;;;15.80;12.83;;;16.50;99.90;;;;;;5092592;28;20169;-71
2023/06/23 01:04:33;;;;;;;17.40;13.63;;;16.50;99.90;;;;;;5074013;28;20173;-70
2023/06/23 01:07:12;;;;;;;20.00;12.83;;;16.40;99.90;;;;;;5092491;28;20229;-71
2023/06/23 01:09:52;;;;;;;17.87;14.07;;;16.50;99.90;;;;;;5092529;28;20173;-71
2023/06/23 01:12:43;;;;;;;17.07;13.27;;;16.50;99.90;;;;;;5092525;28;20643;-71
2023/06/23 01:15:17;;;;;;;17.10;12.60;;;16.40;99.90;;;;;;5092510;28;20619;-70
2023/06/23 01:18:09;;;;;;;18.70;12.67;;;16.40;99.90;;;;;;5092530;28;20656;-70
2023/06/23 01:20:39;;;;;;;14.53;12.00;;;16.40;99.90;;;;;;5092130;28;20178;-71
2023/06/23 01:23:32;;;;;;;16.20;13.63;;;16.40;99.90;;;;;;5092071;28;20582;-71
2023/06/23 01:26:06;;;;;;;14.97;12.37;;;16.40;99.90;;;;;;5091904;28;20721;-71
2023/06/23 01:28:52;;;;;;;11.50;9.77;;;16.40;99.90;;;;;;5091813;28;20683;-70
2023/06/23 01:31:37;;;;;;;13.80;11.60;;;16.30;99.90;;;;;;5092375;28;20174;-71
2023/06/23 01:34:06;;;;;;;14.50;11.57;;;16.40;99.90;;;;;;5092112;28;20185;-70
2023/06/23 01:36:41;;;;;;;11.63;10.50;;;16.30;99.90;;;;;;5092075;28;20201;-70
2023/06/23 01:39:11;;;;;;;15.97;9.43;;;16.30;99.90;;;;;;5091821;28;20176;-70
2023/06/23 01:42:02;;;;;;;11.57;10.47;;;16.30;99.90;;;;;;5092073;28;20709;-71
2023/06/23 01:44:30;;;;;;;15.23;10.57;;;16.40;99.90;;;;;;5082355;28;20227;-70
2023/06/23 01:46:59;;;;;;;11.40;9.97;;;16.40;99.90;;;;;;5091723;28;20311;-70
2023/06/23 01:49:30;;;;;;;16.00;10.07;;;16.40;99.90;;;;;;5091675;28;20485;-70
2023/06/23 01:51:57;;;;;;;11.57;10.23;;;16.40;99.90;;;;;;5092139;28;20295;-70
2023/06/23 01:54:24;;;;;;;10.00;9.00;;;16.40;99.90;;;;;;5091670;28;20631;-70
2023/06/23 01:56:51;;;;;;;12.63;10.00;;;16.40;99.90;;;;;;5091963;28;20165;-70
2023/06/23 01:59:19;;;;;;;12.30;10.07;;;16.40;99.90;;;;;;5091543;28;20660;-70
2023/06/23 02:01:46;;;;;;;14.13;10.40;;;16.40;99.90;;;;;;5090911;28;20173;-69
2023/06/23 02:04:13;;;;;;;13.37;11.00;;;16.50;99.90;;;;;;5091128;28;20627;-70
2023/06/23 02:06:40;;;;;;;11.23;10.13;;;16.50;99.90;;;;;;5091254;28;20277;-70
2023/06/23 02:09:10;;;;;;;12.30;10.27;;;16.50;99.90;;;;;;5091057;28;20196;-70
2023/06/23 02:11:37;;;;;;;10.60;9.50;;;16.40;99.90;;;;;;5091647;28;20172;-69
2023/06/23 02:14:04;;;;;;;12.37;10.57;;;16.50;99.90;;;;;;5091616;28;20177;-69
2023/06/23 02:16:32;;;;;;;12.67;10.57;;;16.40;99.90;;;;;;5073175;28;20211;-70
2023/06/23 02:18:59;;;;;;;15.97;10.33;;;16.50;99.90;;;;;;5091680;28;20222;-70
2023/06/23 02:21:26;;;;;;;11.87;10.40;;;16.50;99.90;;;;;;5091245;28;20212;-70
2023/06/23 02:23:54;;;;;;;17.73;11.30;;;16.50;99.90;;;;;;5091411;28;20232;-70
2023/06/23 02:26:22;;;;;;;12.30;11.00;;;16.40;99.90;;;;;;5090843;28;20674;-70
2023/06/23 02:28:50;;;;;;;15.50;12.47;;;16.40;99.90;;;;;;5091341;28;20170;-69
2023/06/23 02:31:23;;;;;;;16.83;13.43;;;16.40;99.90;;;;;;5090882;28;20173;-70
2023/06/23 02:33:50;;;;;;;20.00;12.80;;;16.40;99.90;;;;;;5091184;28;20259;-70
2023/06/23 02:36:20;;;;;;;18.23;12.33;;;16.40;99.90;;;;;;5091234;28;20193;-70
2023/06/23 02:38:48;;;;;;;13.70;12.03;;;16.40;99.90;;;;;;5091754;28;20241;-70
2023/06/23 02:41:17;;;;;;;16.77;12.03;;;16.40;99.90;;;;;;5090973;28;20670;-70
2023/06/23 02:43:57;;;;;;;18.60;12.90;;;16.40;99.90;;;;;;5091405;28;20606;-70
2023/06/23 02:46:27;;;;;;;14.80;12.20;;;16.40;99.90;;;;;;5090663;28;20603;-70
2023/06/23 02:48:58;;;;;;;19.97;11.83;;;16.40;99.90;;;;;;5091208;28;20166;-69
2023/06/23 02:51:26;;;;;;;17.13;11.93;;;16.40;99.90;;;;;;5091348;28;20628;-69
2023/06/23 02:54:00;;;;;;;11.43;10.23;;;16.40;99.90;;;;;;5091005;28;20535;-71
2023/06/23 02:56:28;;;;;;;17.20;12.47;;;16.40;99.90;;;;;;5091053;28;20193;-69
2023/06/23 02:59:00;;;;;;;14.20;12.60;;;16.40;99.90;;;;;;5093439;28;20170;-69
2023/06/23 03:01:28;;;;;;;14.27;11.77;;;16.40;99.90;;;;;;5094053;28;20181;-70
2023/06/23 03:03:56;;;;;;;17.13;12.40;;;16.40;99.90;;;;;;5094848;28;20180;-69
2023/06/23 03:06:23;;;;;;;19.53;12.27;;;16.50;99.90;;;;;;5094614;28;20213;-69
2023/06/23 03:08:50;;;;;;;15.43;12.23;;;16.50;99.90;;;;;;5094579;28;20193;-70
2023/06/23 03:11:20;;;;;;;21.77;13.07;;;16.50;99.90;;;;;;5094609;28;20166;-69
2023/06/23 03:13:47;;;;;;;13.93;11.03;;;16.40;99.90;;;;;;5094752;28;20635;-70
2023/06/23 03:16:43;;;;;;;16.40;12.33;;;16.50;99.90;;;;;;5094762;28;20732;-70
2023/06/23 03:19:28;;;;;;;17.20;13.70;;;16.40;99.90;;;;;;5064082;28;20192;-70
2023/06/23 03:22:07;;;;;;;21.70;12.53;;;16.40;99.90;;;;;;5094647;28;20227;-69
2023/06/23 03:24:37;;;;;;;15.10;13.43;;;16.40;99.90;;;;;;5094445;28;20188;-71
2023/06/23 03:27:07;;;;;;;16.67;12.73;;;16.40;99.90;;;;;;5094282;28;20180;-70
2023/06/23 03:29:37;;;;;;;13.97;12.33;;;16.40;99.90;;;;;;5075996;28;20692;-69
2023/06/23 03:32:05;;;;;;;17.07;13.57;;;16.40;99.90;;;;;;5094145;28;20286;-69
2023/06/23 03:34:39;;;;;;;19.80;14.20;;;16.40;99.90;;;;;;5094287;28;20177;-70
2023/06/23 03:37:07;;;;;;;20.53;15.03;;;16.40;99.90;;;;;;5094489;28;20181;-69
2023/06/23 03:39:37;;;;;;;15.40;13.27;;;16.40;99.90;;;;;;5093636;28;20185;-69
2023/06/23 03:42:04;;;;;;;18.73;15.37;;;16.40;99.90;;;;;;5094567;28;20623;-70
2023/06/23 03:44:35;;;;;;;21.07;14.77;;;16.50;99.90;;;;;;5093900;28;20658;-70
2023/06/23 03:47:06;;;;;;;20.73;14.70;;;16.40;99.90;;;;;;5094187;28;20169;-71
2023/06/23 03:49:37;;;;;;;20.40;15.73;;;16.40;99.90;;;;;;5093587;28;20170;-69
2023/06/23 03:52:06;;;;;;;19.97;14.57;;;16.40;99.90;;;;;;5094223;28;20176;-70
2023/06/23 03:54:33;;;;;;;21.43;14.60;;;16.40;99.90;;;;;;5093775;28;20166;-70
2023/06/23 03:57:02;;;;;;;20.43;14.53;;;16.40;99.90;;;;;;5093916;28;20602;-69
2023/06/23 03:59:29;;;;;;;22.30;15.23;;;16.40;99.90;;;;;;5092412;28;20177;-69
2023/06/23 04:01:56;;;;;;;16.67;14.00;;;16.40;99.90;;;;;;5093470;28;20631;-69
2023/06/23 04:04:24;;;;;;;17.90;15.10;;;16.30;99.90;;;;;;5093081;28;20173;-69
2023/06/23 04:06:51;;;;;;;22.20;14.80;;;16.40;99.90;;;;;;5093779;28;20177;-70
2023/06/23 04:09:19;;;;;;;23.93;16.00;;;16.30;99.90;;;;;;5093466;28;20261;-69
2023/06/23 04:11:46;;;;;;;19.00;14.27;;;16.40;99.90;;;;;;5093634;28;20664;-69
2023/06/23 04:14:14;;;;;;;22.90;16.97;;;16.30;99.90;;;;;;5093675;28;20201;-69
2023/06/23 04:16:42;;;;;;;25.07;18.83;;;16.30;99.90;;;;;;5093845;28;20177;-69
2023/06/23 04:19:12;;;;;;;25.60;17.93;;;16.30;99.90;;;;;;5093010;28;20244;-69
2023/06/23 04:21:39;;;;;;;22.30;17.43;;;16.30;99.90;;;;;;5093551;28;20180;-70
2023/06/23 04:24:06;;;;;;;26.70;18.70;;;16.40;99.90;;;;;;5093492;28;20190;-70
2023/06/23 04:26:36;;;;;;;24.00;18.97;;;16.40;99.90;;;;;;5093149;28;20244;-69
2023/06/23 04:29:07;;;;;;;25.23;17.97;;;16.40;99.90;;;;;;5093174;28;20280;-69
2023/06/23 04:31:35;;;;;;;25.77;19.60;;;16.40;99.90;;;;;;5093063;28;20173;-69
2023/06/23 04:34:00;;;;;;;24.20;19.73;;;16.50;99.90;;;;;;5092810;28;20181;-69
2023/06/23 04:36:39;;;;;;;27.57;19.33;;;16.50;99.90;;;;;;5092961;28;20201;-70
2023/06/23 04:39:15;;;;;;;23.10;19.13;;;16.60;99.90;;;;;;5093016;28;20178;-69
2023/06/23 04:41:46;;;;;;;26.67;18.33;;;16.70;99.90;;;;;;5092682;28;20181;-69
2023/06/23 04:44:13;;;;;;;30.63;20.10;;;16.80;99.90;;;;;;5074851;28;20209;-69
2023/06/23 04:46:41;;;;;;;27.17;20.00;;;16.90;99.90;;;;;;5092744;28;20309;-69
2023/06/23 04:49:12;;;;;;;30.40;20.13;;;17.00;99.90;;;;;;5092647;28;20162;-69
2023/06/23 04:51:46;;;;;;;25.60;18.53;;;17.00;99.90;;;;;;5092567;28;20177;-69
2023/06/23 04:54:17;;;;;;;27.10;17.23;;;16.90;99.90;;;;;;5092917;28;20177;-69
2023/06/23 04:56:45;;;;;;;25.83;19.53;;;16.90;99.90;;;;;;5092657;28;20556;-69
2023/06/23 04:59:15;;;;;;;26.13;18.43;;;16.90;99.90;;;;;;5092496;28;20189;-69
2023/06/23 05:01:42;;;;;;;24.77;18.90;;;17.00;99.90;;;;;;5092763;28;20186;-69
2023/06/23 05:04:08;;;;;;;22.70;18.60;;;17.00;99.90;;;;;;5091432;28;20204;-69
2023/06/23 05:06:36;;;;;;;26.33;19.43;;;17.10;99.90;;;;;;5092672;28;20235;-69
2023/06/23 05:09:04;;;;;;;21.93;17.50;;;17.10;99.90;;;;;;5092170;28;20558;-69
2023/06/23 05:11:31;;;;;;;21.40;18.00;;;17.20;99.90;;;;;;5092403;28;20581;-69
2023/06/23 05:13:58;;;;;;;23.60;18.47;;;17.20;99.90;;;;;;5090599;28;20178;-69
2023/06/23 05:16:25;;;;;;;22.73;19.00;;;17.40;99.90;;;;;;5092503;28;20205;-69
2023/06/23 05:18:53;;;;;;;23.77;17.83;;;17.50;99.90;;;;;;5092435;28;20248;-69
2023/06/23 05:21:21;;;;;;;23.47;17.67;;;17.70;99.90;;;;;;5091638;28;20177;-69
2023/06/23 05:23:49;;;;;;;21.30;17.97;;;17.80;99.90;;;;;;5092091;28;20261;-69
2023/06/23 05:26:16;;;;;;;24.70;18.57;;;17.70;99.90;;;;;;5073867;28;20205;-69
2023/06/23 05:28:45;;;;;;;23.83;18.03;;;17.70;99.90;;;;;;5092144;28;20256;-70
2023/06/23 05:31:12;;;;;;;27.03;18.40;;;17.60;99.90;;;;;;5085141;28;20595;-69
2023/06/23 05:33:40;;;;;;;24.90;19.07;;;17.70;99.90;;;;;;5071791;28;20540;-70
2023/06/23 05:36:11;;;;;;;25.53;19.53;;;17.60;99.90;;;;;;5071533;28;20313;-70
2023/06/23 05:38:38;;;;;;;20.40;17.90;;;17.60;99.90;;;;;;5071390;28;20232;-69
2023/06/23 05:41:04;;;;;;;25.80;19.53;;;17.70;99.90;;;;;;5075204;28;20177;-69
2023/06/23 05:43:30;;;;;;;25.90;19.47;;;17.80;99.90;;;;;;5092068;28;20548;-69
2023/06/23 05:45:57;;;;;;;25.27;19.90;;;18.10;99.90;;;;;;5091297;28;20285;-70
2023/06/23 05:48:27;;;;;;;22.17;17.83;;;18.20;99.90;;;;;;5092045;28;20169;-70
2023/06/23 05:50:55;;;;;;;23.73;19.20;;;18.20;99.90;;;;;;5091318;28;20319;-70
2023/06/23 05:53:23;;;;;;;22.47;18.97;;;18.20;99.90;;;;;;5091926;28;20223;-71
2023/06/23 05:56:19;;;;;;;25.63;20.57;;;18.30;99.90;;;;;;5090975;28;20217;-70
2023/06/23 05:58:48;;;;;;;23.43;19.00;;;18.20;99.90;;;;;;5090529;28;20177;-70
2023/06/23 06:01:19;;;;;;;25.43;19.63;;;18.30;99.90;;;;;;5091422;28;20242;-70
2023/06/23 06:03:51;;;;;;;22.90;18.47;;;18.30;99.90;;;;;;5091748;28;20184;-70
2023/06/23 06:06:18;;;;;;;25.27;18.63;;;18.30;99.90;;;;;;5091517;28;20569;-69
2023/06/23 06:08:45;;;;;;;20.70;18.20;;;18.60;99.90;;;;;;5090441;28;20195;-70
2023/06/23 06:11:16;;;;;;;23.10;17.23;;;18.70;99.90;;;;;;5091341;28;20600;-70
2023/06/23 06:13:43;;;;;;;23.60;18.30;;;18.60;99.90;;;;;;5090878;28;20173;-69
2023/06/23 06:16:10;;;;;;;21.13;17.27;;;18.90;99.90;;;;;;5091505;28;20288;-71
2023/06/23 06:18:37;;;;;;;22.80;17.63;;;19.20;99.90;;;;;;5091513;28;20588;-70
2023/06/23 06:21:04;;;;;;;22.87;18.67;;;19.20;99.90;;;;;;5091369;28;20170;-71
2023/06/23 06:23:31;;;;;;;20.30;17.73;;;19.30;99.90;;;;;;5091505;28;20170;-70
2023/06/23 06:25:59;;;;;;;20.77;18.43;;;19.30;99.90;;;;;;5091246;28;20233;-70
2023/06/23 06:28:26;;;;;;;23.23;17.03;;;19.50;99.90;;;;;;5091487;28;20169;-70
2023/06/23 06:30:54;;;;;;;20.20;18.00;;;19.80;99.90;;;;;;5091074;28;20237;-69
2023/06/23 06:33:21;;;;;;;21.50;19.57;;;20.10;99.90;;;;;;5093032;28;20205;-70
2023/06/23 06:35:48;;;;;;;28.43;25.90;;;20.30;99.90;;;;;;5095480;28;20638;-70
2023/06/23 06:38:16;;;;;;;23.00;20.67;;;20.30;99.90;;;;;;5095569;28;20180;-69
2023/06/23 06:40:46;;;;;;;20.07;16.20;;;20.00;99.90;;;;;;5095377;28;20169;-69
2023/06/23 06:43:12;;;;;;;18.20;16.27;;;19.70;99.90;;;;;;5095564;28;20613;-70
2023/06/23 06:45:37;;;;;;;17.03;15.20;;;19.70;99.90;;;;;;5077268;28;20212;-70
2023/06/23 06:48:04;;;;;;;17.73;15.70;;;19.50;99.90;;;;;;5077223;28;20181;-70
2023/06/23 06:50:31;;;;;;;19.83;15.90;;;19.70;99.90;;;;;;5095075;28;20173;-70
2023/06/23 06:52:58;;;;;;;22.53;19.20;;;19.80;99.90;;;;;;5095252;28;20237;-70
2023/06/23 06:55:24;;;;;;;21.83;19.73;;;20.10;99.90;;;;;;5094481;28;20205;-70
2023/06/23 06:57:51;;;;;;;18.37;16.37;;;20.40;99.90;;;;;;5075369;28;20177;-69
2023/06/23 07:00:19;;;;;;;18.80;17.08;;;20.50;99.90;;;;;;5074627;28;20220;-70
2023/06/23 07:02:45;;;;;;;18.87;16.90;;;20.60;99.90;;;;;;5073978;28;20714;-70
2023/06/23 07:05:11;;;;;;;17.40;14.40;;;20.50;99.90;;;;;;5074897;28;20210;-71
2023/06/23 07:07:37;;;;;;;20.30;16.33;;;20.30;99.90;;;;;;5074837;28;20643;-70
2023/06/23 07:10:03;;;;;;;19.33;16.43;;;20.20;99.90;;;;;;5073277;28;20235;-71
2023/06/23 07:12:30;;;;;;;19.93;16.63;;;20.00;99.90;;;;;;5073884;28;20205;-70
2023/06/23 07:14:55;;;;;;;23.17;18.83;;;20.00;99.90;;;;;;5074668;28;20232;-70
2023/06/23 07:17:21;;;;;;;23.53;21.17;;;20.10;99.90;;;;;;5074704;28;20202;-70
2023/06/23 07:19:46;;;;;;;20.77;18.57;;;20.20;99.90;;;;;;5074226;28;20219;-71
2023/06/23 07:22:12;;;;;;;20.90;17.50;;;20.10;99.90;;;;;;5074504;28;20228;-70
2023/06/23 07:24:37;;;;;;;20.33;18.30;;;20.10;99.90;;;;;;5074269;28;20205;-70
2023/06/23 07:27:04;;;;;;;19.13;17.17;;;20.30;99.90;;;;;;5074382;28;20171;-70
2023/06/23 07:29:29;;;;;;;18.67;16.40;;;20.50;99.90;;;;;;5074209;28;20623;-70
2023/06/23 07:31:55;;;;;;;17.97;16.10;;;20.60;99.90;;;;;;5074254;28;20167;-70
2023/06/23 07:34:21;;;;;;;18.97;15.93;;;20.70;99.90;;;;;;5074245;28;20620;-70
2023/06/23 07:36:46;;;;;;;20.57;16.43;;;20.80;99.90;;;;;;5074112;28;20578;-70
2023/06/23 07:39:12;;;;;;;18.08;16.25;;;21.00;99.90;;;;;;5073913;28;20841;-70
2023/06/23 07:41:39;;;;;;;20.05;15.75;;;21.40;99.90;;;;;;5073973;28;20257;-71
2023/06/23 07:44:05;;;;;;;19.73;17.80;;;21.80;99.90;;;;;;5073583;28;20181;-70
2023/06/23 07:46:30;;;;;;;20.75;18.52;;;22.10;99.90;;;;;;5074225;28;20210;-71
2023/06/23 07:48:56;;;;;;;17.05;14.65;;;22.30;99.90;;;;;;5073908;28;20538;-70
2023/06/23 07:51:21;;;;;;;18.02;16.17;;;22.40;99.90;;;;;;5073659;28;20546;-70
2023/06/23 07:53:47;;;;;;;22.48;20.48;;;22.60;99.90;;;;;;5074208;28;20268;-70
2023/06/23 07:56:13;;;;;;;19.15;17.38;;;22.60;99.90;;;;;;5073008;28;20196;-70
2023/06/23 07:58:41;;;;;;;18.23;16.52;;;22.70;99.90;;;;;;5073770;28;20204;-71
2023/06/23 08:01:07;;;;;;;15.80;13.73;;;22.90;99.90;;;;;;5055458;28;20186;-71
2023/06/23 08:03:33;;;;;;;15.90;14.30;;;23.10;99.90;;;;;;5073768;28;20543;-70
2023/06/23 08:05:59;;;;;;;14.93;13.63;;;23.00;99.90;;;;;;5073752;28;20285;-70
2023/06/23 08:08:25;;;;;;;20.02;18.13;;;23.00;99.90;;;;;;5072550;28;20604;-70
2023/06/23 08:10:50;;;;;;;15.55;12.35;;;22.80;99.90;;;;;;5073194;28;20227;-71
2023/06/23 08:13:17;;;;;;;15.23;13.73;;;22.70;99.90;;;;;;5072996;28;20174;-71
2023/06/23 08:15:43;;;;;;;12.32;11.02;;;22.70;99.90;;;;;;5055601;28;20197;-71
2023/06/23 08:18:09;;;;;;;13.00;11.70;;;22.90;99.90;;;;;;5055587;28;20170;-70
2023/06/23 08:20:34;;;;;;;14.82;11.85;;;23.30;99.90;;;;;;5055174;28;20556;-70
2023/06/23 08:23:01;;;;;;;13.88;11.35;;;23.70;99.90;;;;;;5073643;28;20674;-71
2023/06/23 08:25:27;;;;;;;15.35;12.32;;;24.10;99.90;;;;;;5055316;28;20248;-70
2023/06/23 08:27:52;;;;;;;13.50;12.20;;;24.60;99.90;;;;;;5073182;28;20609;-68
2023/06/23 08:30:26;;;;;;;12.07;10.68;;;25.00;99.90;;;;;;5073007;28;20295;-70
2023/06/23 08:32:51;;;;;;;15.30;11.18;;;25.40;99.90;;;;;;5072897;28;20647;-69
2023/06/23 08:35:17;;;;;;;12.63;11.30;;;25.10;99.90;;;;;;5073084;28;20209;-70
2023/06/23 08:37:42;;;;;;;12.82;11.05;;;25.00;99.90;;;;;;5073584;28;20271;-70
2023/06/23 08:40:09;;;;;;;12.25;10.25;;;25.30;99.90;;;;;;5072819;28;20691;-72
2023/06/23 08:42:35;;;;;;;10.95;9.93;;;25.30;99.90;;;;;;5072895;28;20571;-71
2023/06/23 08:45:05;;;;;;;12.02;10.77;;;25.10;99.90;;;;;;5072683;28;20212;-70
2023/06/23 08:47:35;;;;;;;12.02;10.80;;;24.80;99.90;;;;;;5072939;28;20662;-70
2023/06/23 08:50:01;;;;;;;12.55;11.25;;;24.30;99.90;;;;;;5072413;28;20173;-72
2023/06/23 08:52:27;;;;;;;13.00;11.80;;;23.90;99.90;;;;;;5072080;28;20253;-70
2023/06/23 08:54:52;;;;;;;16.20;13.50;;;23.40;99.90;;;;;;5072568;28;20665;-70
2023/06/23 08:57:18;;;;;;;19.17;17.75;;;23.10;99.90;;;;;;5072115;28;20170;-71
2023/06/23 08:59:44;;;;;;;18.85;17.35;;;22.80;99.90;;;;;;5072351;28;20175;-69
2023/06/23 09:02:10;;;;;;;15.98;14.43;;;22.80;99.90;;;;;;5072412;28;20235;-70
2023/06/23 09:04:35;;;;;;;13.82;10.23;;;23.30;99.90;;;;;;5072351;28;20189;-69
2023/06/23 09:07:01;;;;;;;10.75;9.45;;;24.10;99.90;;;;;;5072265;28;20166;-70
2023/06/23 09:09:27;;;;;;;11.77;9.75;;;25.00;99.90;;;;;;5071346;28;20166;-69
2023/06/23 09:11:53;;;;;;;11.90;10.80;;;25.70;99.90;;;;;;5072148;28;20173;-70
2023/06/23 09:14:18;;;;;;;11.05;10.05;;;26.10;99.90;;;;;;5054307;28;20559;-71
2023/06/23 09:16:45;;;;;;;12.43;9.15;;;26.60;99.90;;;;;;5072275;28;20253;-70
2023/06/23 09:19:11;;;;;;;9.45;8.05;;;26.80;99.90;;;;;;5071934;28;20166;-70
2023/06/23 09:21:40;;;;;;;11.30;8.85;;;26.50;99.90;;;;;;5072409;28;20659;-69
2023/06/23 09:24:07;;;;;;;10.00;8.98;;;26.70;99.90;;;;;;5054074;28;20230;-70
2023/06/23 09:26:58;;;;;;;9.20;8.30;;;26.90;99.90;;;;;;5071851;28;20204;-70
2023/06/23 09:29:28;;;;;;;9.35;8.45;;;27.10;99.90;;;;;;5068010;28;20277;-70
2023/06/23 09:31:55;;;;;;;8.25;7.13;;;27.30;99.90;;;;;;5069615;28;20536;-70
2023/06/23 09:34:21;;;;;;;9.15;8.23;;;27.80;99.90;;;;;;5092194;28;20646;-70
2023/06/23 09:36:47;;;;;;;7.55;6.65;;;27.80;99.90;;;;;;5090894;28;20222;-70
2023/06/23 09:39:14;;;;;;;9.75;7.57;;;27.80;99.90;;;;;;5091918;28;20264;-70
2023/06/23 09:41:57;;;;;;;7.65;6.95;;;27.80;99.90;;;;;;5092094;28;20244;-70
2023/06/23 09:44:35;;;;;;;11.18;9.55;;;28.10;99.90;;;;;;5092108;28;20174;-71
2023/06/23 09:47:04;;;;;;;10.80;9.63;;;28.40;99.90;;;;;;5091040;28;20173;-71
2023/06/23 09:49:40;;;;;;;10.15;9.20;;;28.30;99.90;;;;;;5090428;28;20406;-71
2023/06/23 09:52:07;;;;;;;8.27;7.50;;;28.60;99.90;;;;;;5091441;28;20452;-70
2023/06/23 09:54:39;;;;;;;8.75;7.95;;;28.30;99.90;;;;;;5091112;28;20178;-71
2023/06/23 09:57:12;;;;;;;7.53;6.82;;;28.50;99.90;;;;;;5091860;28;20651;-70
2023/06/23 09:59:43;;;;;;;8.63;7.78;;;28.50;99.90;;;;;;5091655;28;20264;-71
2023/06/23 10:02:19;;;;;;;8.35;7.57;;;28.50;99.90;;;;;;5091720;28;20180;-71
2023/06/23 10:04:45;;;;;;;9.75;8.68;;;27.40;99.90;;;;;;5088385;28;20189;-70
2023/06/23 10:07:18;;;;;;;11.65;10.55;;;26.50;99.90;;;;;;5091226;28;20188;-70
2023/06/23 10:09:51;;;;;;;13.07;12.15;;;26.70;99.90;;;;;;5090983;28;20252;-71
2023/06/23 10:12:21;;;;;;;11.30;10.40;;;27.10;99.90;;;;;;5091551;28;20663;-70
2023/06/23 10:14:49;;;;;;;10.00;7.65;;;27.30;99.90;;;;;;5090227;28;20758;-70
2023/06/23 10:17:15;;;;;;;8.68;7.78;;;27.00;99.90;;;;;;5091046;28;20177;-71
2023/06/23 10:19:42;;;;;;;8.15;7.43;;;26.60;99.90;;;;;;5090995;28;20169;-70
2023/06/23 10:22:09;;;;;;;9.50;8.60;;;26.10;99.90;;;;;;5091274;28;20169;-70
2023/06/23 10:24:36;;;;;;;8.02;7.22;;;26.10;99.90;;;;;;5090863;28;20185;-71
2023/06/23 10:27:03;;;;;;;8.15;7.50;;;26.40;99.90;;;;;;5090612;28;20537;-71
2023/06/23 10:29:34;;;;;;;9.40;8.50;;;26.40;99.90;;;;;;5091022;28;20169;-70
2023/06/23 10:32:02;;;;;;;8.15;6.00;;;26.80;99.90;;;;;;5091205;28;20165;-70
2023/06/23 10:34:28;;;;;;;6.82;6.28;;;27.20;99.90;;;;;;5073071;28;20204;-69
2023/06/23 10:36:57;;;;;;;8.48;5.63;;;27.50;99.90;;;;;;5091331;28;20173;-70
2023/06/23 10:39:26;;;;;;;6.72;6.05;;;27.40;99.90;;;;;;5090349;28;20248;-70
2023/06/23 10:41:53;;;;;;;8.60;6.72;;;27.70;99.90;;;;;;5090150;28;20177;-69
2023/06/23 10:44:18;;;;;;;6.97;5.80;;;28.30;99.90;;;;;;5091103;28;20169;-70
2023/06/23 10:46:46;;;;;;;6.63;5.97;;;28.90;99.90;;;;;;5072933;28;20197;-71
2023/06/23 10:49:12;;;;;;;6.80;6.10;;;28.80;99.90;;;;;;5091023;28;20193;-71
2023/06/23 10:51:38;;;;;;;6.03;5.45;;;28.60;99.90;;;;;;5090701;28;20205;-70
2023/06/23 10:54:07;;;;;;;6.78;6.20;;;28.90;99.90;;;;;;5091142;28;20166;-69
2023/06/23 10:56:35;;;;;;;9.18;6.95;;;29.00;99.90;;;;;;5090993;28;20192;-70
2023/06/23 10:59:18;;;;;;;6.63;6.05;;;28.80;99.90;;;;;;5089607;28;20312;-70
2023/06/23 11:01:59;;;;;;;6.85;5.72;;;28.60;99.90;;;;;;5091127;28;20165;-69
2023/06/23 11:04:32;;;;;;;6.57;5.93;;;28.90;99.90;;;;;;5091076;28;20169;-70
2023/06/23 11:07:03;;;;;;;6.55;5.90;;;29.60;99.90;;;;;;5090519;28;20197;-70
2023/06/23 11:10:01;;;;;;;5.20;4.82;;;29.90;99.90;;;;;;5090532;28;20234;-70
2023/06/23 11:12:34;;;;;;;7.35;5.95;;;30.00;99.90;;;;;;5091005;28;20177;-69
2023/06/23 11:15:08;;;;;;;6.57;5.90;;;29.90;99.90;;;;;;5090101;28;20339;-70
2023/06/23 11:18:11;;;;;;;5.75;5.22;;;30.00;99.90;;;;;;5090843;28;20574;-70
2023/06/23 11:20:43;;;;;;;5.65;5.22;;;30.20;99.90;;;;;;5076185;28;20638;-71
2023/06/23 11:23:13;;;;;;;5.82;5.32;;;30.50;99.90;;;;;;5094446;28;20198;-71
2023/06/23 11:25:41;;;;;;;5.85;5.35;;;30.20;99.90;;;;;;5094702;28;20205;-70
2023/06/23 11:28:22;;;;;;;6.68;5.30;;;30.30;99.90;;;;;;5093527;28;20192;-71
2023/06/23 11:31:03;;;;;;;5.13;4.70;;;30.30;99.90;;;;;;5093315;28;20181;-70
2023/06/23 11:33:31;;;;;;;6.93;6.35;;;30.00;99.90;;;;;;5076531;28;20654;-69
2023/06/23 11:36:01;;;;;;;5.28;4.88;;;30.00;99.90;;;;;;5093742;28;20647;-70
2023/06/23 11:38:30;;;;;;;4.72;4.32;;;30.10;99.90;;;;;;5076492;28;20605;-71
2023/06/23 11:40:59;;;;;;;4.25;3.85;;;30.20;99.90;;;;;;5093802;28;20166;-70
2023/06/23 11:43:24;;;;;;;4.82;3.67;;;30.40;99.90;;;;;;5093515;28;20176;-69
2023/06/23 11:45:55;;;;;;;4.78;4.38;;;30.80;99.90;;;;;;5093897;28;20300;-69
2023/06/23 11:48:26;;;;;;;7.68;3.60;;;30.80;99.90;;;;;;5094262;28;20612;-70
2023/06/23 11:50:54;;;;;;;4.40;4.07;;;31.10;99.90;;;;;;5093227;28;20581;-71
2023/06/23 11:53:19;;;;;;;4.25;3.85;;;31.10;99.90;;;;;;5093671;28;20166;-70
2023/06/23 11:55:45;;;;;;;4.20;3.90;;;30.50;99.90;;;;;;5075781;28;20197;-70
2023/06/23 11:58:11;;;;;;;4.20;3.90;;;30.30;99.90;;;;;;5092913;28;20252;-69
2023/06/23 12:00:36;;;;;;;4.10;3.70;;;30.60;99.90;;;;;;5093626;28;20177;-70
2023/06/23 12:03:02;;;;;;;4.88;4.05;;;30.90;99.90;;;;;;5092994;28;20185;-70
2023/06/23 12:05:28;;;;;;;5.15;4.60;;;30.50;99.90;;;;;;5092801;28;20305;-69
2023/06/23 12:07:55;;;;;;;4.13;3.83;;;30.70;99.90;;;;;;5093350;28;20257;-70
2023/06/23 12:10:21;;;;;;;4.05;3.72;;;30.90;99.90;;;;;;5093286;28;20509;-71
2023/06/23 12:12:48;;;;;;;4.55;4.20;;;30.80;99.90;;;;;;5093439;28;20169;-71
2023/06/23 12:15:14;;;;;;;4.97;4.35;;;30.60;99.90;;;;;;5093551;28;20564;-70
2023/06/23 12:17:44;;;;;;;4.40;4.05;;;30.90;99.90;;;;;;5093587;28;20169;-70
2023/06/23 12:20:10;;;;;;;4.40;4.00;;;31.10;99.90;;;;;;5093032;28;20169;-70
2023/06/23 12:22:36;;;;;;;5.95;5.55;;;31.30;99.90;;;;;;5093498;28;20177;-70
2023/06/23 12:25:04;;;;;;;4.28;3.97;;;31.20;99.90;;;;;;5092788;28;20297;-69
2023/06/23 12:27:30;;;;;;;4.38;4.07;;;31.60;99.90;;;;;;5093351;28;20662;-70
2023/06/23 12:29:55;;;;;;;4.10;3.80;;;31.70;99.90;;;;;;5092166;28;20177;-70
2023/06/23 12:32:29;;;;;;;4.47;4.07;;;31.70;99.90;;;;;;5092660;28;20239;-70
2023/06/23 12:34:56;;;;;;;4.20;3.80;;;31.70;99.90;;;;;;5093559;28;20390;-69
2023/06/23 12:37:22;;;;;;;4.32;3.95;;;31.50;99.90;;;;;;5093190;28;20162;-69
2023/06/23 12:39:52;;;;;;;7.55;4.55;;;31.30;99.90;;;;;;5092581;28;20181;-70
2023/06/23 12:42:19;;;;;;;6.50;4.60;;;31.10;99.90;;;;;;5092643;28;20228;-70